sensor_id;sensor_type;location;lat;lon;timestamp;P1;durP1;ratioP1;P2;durP2;ratioP2
7883;SDS011;3987;51.458;7.238;2024-03-25T00:03:35;19.67;;;7.13;;
7883;SDS011;3987;51.458;7.238;2024-03-25T00:18:35;23.03;;;9.37;;
7883;SDS011;3987;51.458;7.238;2024-03-25T00:33:36;35.47;;;13.32;;
7883;SDS011;3987;51.458;7.238;2024-03-25T00:48:36;50.83;;;22.95;;
7883;SDS011;3987;51.458;7.238;2024-03-25T01:03:38;51.72;;;23.13;;
7883;SDS011;3987;51.458;7.238;2024-03-25T01:18:38;55.85;;;26.35;;
7883;SDS011;3987;51.458;7.238;2024-03-25T01:33:39;63.87;;;30.20;;
7883;SDS011;3987;51.458;7.238;2024-03-25T01:48:39;59.13;;;24.35;;
7883;SDS011;3987;51.458;7.238;2024-03-25T02:03:43;42.10;;;15.07;;
7883;SDS011;3987;51.458;7.238;2024-03-25T02:18:44;29.13;;;11.43;;
7883;SDS011;3987;51.458;7.238;2024-03-25T02:33:44;29.33;;;9.20;;
7883;SDS011;3987;51.458;7.238;2024-03-25T02:48:45;28.90;;;8.33;;
7883;SDS011;3987;51.458;7.238;2024-03-25T03:03:46;33.40;;;9.93;;
7883;SDS011;3987;51.458;7.238;2024-03-25T03:18:46;29.15;;;13.15;;
7883;SDS011;3987;51.458;7.238;2024-03-25T03:33:47;43.13;;;14.33;;
7883;SDS011;3987;51.458;7.238;2024-03-25T03:48:48;29.35;;;14.40;;
7883;SDS011;3987;51.458;7.238;2024-03-25T04:03:49;35.80;;;15.18;;
7883;SDS011;3987;51.458;7.238;2024-03-25T04:18:49;50.45;;;16.30;;
7883;SDS011;3987;51.458;7.238;2024-03-25T04:33:50;42.67;;;16.33;;
7883;SDS011;3987;51.458;7.238;2024-03-25T04:48:50;48.97;;;17.48;;
7883;SDS011;3987;51.458;7.238;2024-03-25T05:03:51;36.50;;;15.23;;
7883;SDS011;3987;51.458;7.238;2024-03-25T05:18:51;51.67;;;17.83;;
7883;SDS011;3987;51.458;7.238;2024-03-25T05:33:51;48.87;;;18.23;;
7883;SDS011;3987;51.458;7.238;2024-03-25T05:48:52;49.58;;;18.88;;
7883;SDS011;3987;51.458;7.238;2024-03-25T06:03:52;49.40;;;19.27;;
7883;SDS011;3987;51.458;7.238;2024-03-25T06:18:53;45.00;;;17.05;;
7883;SDS011;3987;51.458;7.238;2024-03-25T06:33:53;33.92;;;14.52;;
7883;SDS011;3987;51.458;7.238;2024-03-25T06:49:12;36.40;;;13.63;;
7883;SDS011;3987;51.458;7.238;2024-03-25T07:04:12;34.60;;;12.73;;
7883;SDS011;3987;51.458;7.238;2024-03-25T07:19:13;23.83;;;10.97;;
7883;SDS011;3987;51.458;7.238;2024-03-25T07:34:13;25.90;;;10.03;;
7883;SDS011;3987;51.458;7.238;2024-03-25T07:49:14;23.90;;;9.60;;
7883;SDS011;3987;51.458;7.238;2024-03-25T08:04:14;24.37;;;9.57;;
7883;SDS011;3987;51.458;7.238;2024-03-25T08:19:14;22.67;;;8.63;;
7883;SDS011;3987;51.458;7.238;2024-03-25T08:34:17;20.83;;;7.57;;
7883;SDS011;3987;51.458;7.238;2024-03-25T08:49:17;16.98;;;5.47;;
7883;SDS011;3987;51.458;7.238;2024-03-25T09:04:17;9.83;;;3.87;;
7883;SDS011;3987;51.458;7.238;2024-03-25T09:19:18;11.70;;;4.10;;
7883;SDS011;3987;51.458;7.238;2024-03-25T09:34:18;9.35;;;2.88;;
7883;SDS011;3987;51.458;7.238;2024-03-25T09:49:19;12.73;;;3.80;;
7883;SDS011;3987;51.458;7.238;2024-03-25T10:04:20;8.23;;;3.30;;
7883;SDS011;3987;51.458;7.238;2024-03-25T10:19:21;3.60;;;2.30;;
7883;SDS011;3987;51.458;7.238;2024-03-25T10:34:21;4.88;;;2.67;;
7883;SDS011;3987;51.458;7.238;2024-03-25T10:49:25;7.25;;;2.72;;
7883;SDS011;3987;51.458;7.238;2024-03-25T11:04:32;2.90;;;2.27;;
7883;SDS011;3987;51.458;7.238;2024-03-25T11:19:33;3.97;;;2.37;;
7883;SDS011;3987;51.458;7.238;2024-03-25T11:34:36;5.97;;;2.27;;
7883;SDS011;3987;51.458;7.238;2024-03-25T11:49:38;5.10;;;2.40;;
7883;SDS011;3987;51.458;7.238;2024-03-25T12:04:41;5.13;;;2.10;;
7883;SDS011;3987;51.458;7.238;2024-03-25T12:35:01;3.40;;;1.63;;
7883;SDS011;3987;51.458;7.238;2024-03-25T12:50:02;2.77;;;1.80;;
7883;SDS011;3987;51.458;7.238;2024-03-25T13:05:03;2.47;;;1.50;;
7883;SDS011;3987;51.458;7.238;2024-03-25T13:20:04;4.07;;;1.73;;
7883;SDS011;3987;51.458;7.238;2024-03-25T13:35:05;3.58;;;1.65;;
7883;SDS011;3987;51.458;7.238;2024-03-25T13:50:06;3.33;;;2.00;;
7883;SDS011;3987;51.458;7.238;2024-03-25T14:05:08;2.60;;;1.70;;
7883;SDS011;3987;51.458;7.238;2024-03-25T14:20:08;2.25;;;1.48;;
7883;SDS011;3987;51.458;7.238;2024-03-25T14:35:09;4.13;;;1.67;;
7883;SDS011;3987;51.458;7.238;2024-03-25T14:50:10;4.40;;;1.80;;
7883;SDS011;3987;51.458;7.238;2024-03-25T15:05:10;3.03;;;1.33;;
7883;SDS011;3987;51.458;7.238;2024-03-25T15:20:11;1.75;;;1.38;;
7883;SDS011;3987;51.458;7.238;2024-03-25T15:35:11;1.90;;;1.30;;
7883;SDS011;3987;51.458;7.238;2024-03-25T15:50:12;2.43;;;1.43;;
7883;SDS011;3987;51.458;7.238;2024-03-25T16:05:12;2.47;;;1.43;;
7883;SDS011;3987;51.458;7.238;2024-03-25T16:20:12;1.50;;;1.40;;
7883;SDS011;3987;51.458;7.238;2024-03-25T16:35:13;1.65;;;1.50;;
7883;SDS011;3987;51.458;7.238;2024-03-25T16:50:13;1.40;;;1.20;;
7883;SDS011;3987;51.458;7.238;2024-03-25T17:05:14;1.67;;;1.30;;
7883;SDS011;3987;51.458;7.238;2024-03-25T17:20:14;2.28;;;1.30;;
7883;SDS011;3987;51.458;7.238;2024-03-25T17:35:15;2.17;;;1.80;;
7883;SDS011;3987;51.458;7.238;2024-03-25T17:50:16;4.13;;;3.65;;
7883;SDS011;3987;51.458;7.238;2024-03-25T18:05:21;5.25;;;4.78;;
7883;SDS011;3987;51.458;7.238;2024-03-25T18:20:22;2.50;;;2.30;;
7883;SDS011;3987;51.458;7.238;2024-03-25T18:35:23;4.47;;;2.80;;
7883;SDS011;3987;51.458;7.238;2024-03-25T18:50:23;5.13;;;2.90;;
7883;SDS011;3987;51.458;7.238;2024-03-25T19:05:24;6.18;;;3.88;;
7883;SDS011;3987;51.458;7.238;2024-03-25T19:20:24;7.10;;;3.85;;
7883;SDS011;3987;51.458;7.238;2024-03-25T19:35:25;7.15;;;4.00;;
7883;SDS011;3987;51.458;7.238;2024-03-25T19:50:25;7.80;;;3.72;;
7883;SDS011;3987;51.458;7.238;2024-03-25T20:05:26;5.13;;;3.50;;
7883;SDS011;3987;51.458;7.238;2024-03-25T20:20:26;4.17;;;3.80;;
7883;SDS011;3987;51.458;7.238;2024-03-25T20:35:27;6.30;;;4.20;;
7883;SDS011;3987;51.458;7.238;2024-03-25T20:50:28;4.90;;;4.38;;
7883;SDS011;3987;51.458;7.238;2024-03-25T21:05:29;5.93;;;4.57;;
7883;SDS011;3987;51.458;7.238;2024-03-25T21:20:29;4.53;;;4.13;;
7883;SDS011;3987;51.458;7.238;2024-03-25T21:35:29;6.43;;;4.10;;
7883;SDS011;3987;51.458;7.238;2024-03-25T21:50:30;3.78;;;3.47;;
7883;SDS011;3987;51.458;7.238;2024-03-25T22:05:31;5.60;;;4.28;;
7883;SDS011;3987;51.458;7.238;2024-03-25T22:20:32;4.40;;;3.77;;
7883;SDS011;3987;51.458;7.238;2024-03-25T22:35:32;3.80;;;3.50;;
7883;SDS011;3987;51.458;7.238;2024-03-25T22:50:33;4.43;;;4.10;;
7883;SDS011;3987;51.458;7.238;2024-03-25T23:05:33;5.85;;;4.65;;
7883;SDS011;3987;51.458;7.238;2024-03-25T23:20:37;5.15;;;4.22;;
7883;SDS011;3987;51.458;7.238;2024-03-25T23:35:41;5.40;;;4.80;;
7883;SDS011;3987;51.458;7.238;2024-03-25T23:50:42;5.50;;;4.47;;
